Time;durP1;ratioP1;P1;durP2;ratioP2;P2;SDS_P1;SDS_P2;PMS_P1;PMS_P2;Temp;Humidity;BMP_temperature;BMP_pressure;BME280_temperature;BME280_humidity;BME280_pressure;Samples;Min_cycle;Max_cycle;Signal;HPM_P1;HPM_P2
2022/01/08 00:01:55;;;;;;;2.42;0.50;;;12.30;61.10;;;;;;6157450;23;20052;-77
2022/01/08 00:04:20;;;;;;;3.60;0.88;;;12.30;61.00;;;;;;6158038;23;20021;-76
2022/01/08 00:06:46;;;;;;;2.15;0.50;;;12.30;61.10;;;;;;6156796;23;20407;-75
2022/01/08 00:09:12;;;;;;;3.08;0.90;;;12.30;61.10;;;;;;6157429;23;20097;-75
2022/01/08 00:11:41;;;;;;;1.95;0.60;;;12.30;61.10;;;;;;6157713;23;20060;-77
2022/01/08 00:14:09;;;;;;;3.33;0.85;;;12.30;61.30;;;;;;6156441;23;20415;-78
2022/01/08 00:16:37;;;;;;;1.10;0.45;;;12.30;61.20;;;;;;6157771;23;20017;-76
2022/01/08 00:19:04;;;;;;;2.00;0.88;;;12.30;61.30;;;;;;6157742;23;20017;-77
2022/01/08 00:21:29;;;;;;;4.38;0.70;;;12.30;61.40;;;;;;6156808;23;20021;-75
2022/01/08 00:23:55;;;;;;;3.08;0.50;;;12.30;61.50;;;;;;6156503;23;20466;-77
2022/01/08 00:26:21;;;;;;;3.10;0.88;;;12.30;61.40;;;;;;6157385;23;20025;-77
2022/01/08 00:28:46;;;;;;;1.63;0.52;;;12.20;61.20;;;;;;6156482;23;20017;-76
2022/01/08 00:31:12;;;;;;;2.65;0.73;;;12.30;61.40;;;;;;6157453;23;20029;-77
2022/01/08 00:33:39;;;;;;;2.95;0.95;;;12.10;61.10;;;;;;6156585;23;20111;-78
2022/01/08 00:36:06;;;;;;;2.85;0.90;;;12.10;61.40;;;;;;6159772;23;20315;-78
2022/01/08 00:38:32;;;;;;;2.85;0.80;;;12.10;61.00;;;;;;6158448;23;20125;-76
2022/01/08 00:40:58;;;;;;;4.00;0.80;;;12.00;61.00;;;;;;6159286;23;20438;-78
2022/01/08 00:43:23;;;;;;;2.80;1.10;;;12.00;61.20;;;;;;6159826;23;20013;-77
2022/01/08 00:45:49;;;;;;;2.13;0.52;;;12.00;61.20;;;;;;6158459;23;20160;-76
2022/01/08 00:48:15;;;;;;;2.85;0.60;;;12.00;61.20;;;;;;6158308;23;20021;-77
2022/01/08 00:50:41;;;;;;;3.30;0.75;;;12.00;61.30;;;;;;6158759;23;20092;-77
2022/01/08 00:53:06;;;;;;;5.40;1.10;;;12.00;61.30;;;;;;6159639;23;20018;-76
2022/01/08 00:55:32;;;;;;;3.15;0.68;;;12.00;61.00;;;;;;6159281;23;20030;-75
2022/01/08 00:57:58;;;;;;;3.80;0.50;;;11.90;61.10;;;;;;6159539;23;20029;-76
2022/01/08 01:00:24;;;;;;;4.38;0.90;;;11.90;61.30;;;;;;6159467;23;20342;-78
2022/01/08 01:02:50;;;;;;;2.15;0.60;;;11.90;61.40;;;;;;6160052;23;20025;-77
2022/01/08 01:05:16;;;;;;;3.33;0.93;;;11.90;61.40;;;;;;6160055;23;20022;-75
2022/01/08 01:07:42;;;;;;;3.67;0.57;;;11.90;61.40;;;;;;6158445;23;20411;-75
2022/01/08 01:10:08;;;;;;;3.28;0.50;;;11.90;61.50;;;;;;6159431;23;20108;-76
2022/01/08 01:12:35;;;;;;;4.70;0.93;;;11.80;61.50;;;;;;6159137;23;20025;-76
2022/01/08 01:15:01;;;;;;;2.90;0.70;;;11.90;61.50;;;;;;6158876;23;20415;-75
2022/01/08 01:17:27;;;;;;;2.95;0.77;;;11.90;61.60;;;;;;6159496;23;20021;-75
2022/01/08 01:19:52;;;;;;;5.47;0.98;;;11.80;61.50;;;;;;6159633;23;20017;-75
2022/01/08 01:22:21;;;;;;;3.20;0.40;;;11.90;61.50;;;;;;6159061;23;20021;-77
2022/01/08 01:24:48;;;;;;;2.47;0.63;;;11.80;61.30;;;;;;6157426;23;20022;-75
2022/01/08 01:30:04;;;;;;;3.35;0.60;;;11.90;61.30;;;;;;6158457;23;20021;-76
2022/01/08 01:46:59;;;;;;;1.77;0.30;;;11.80;60.50;;;;;;6157778;23;19917;-76
2022/01/08 01:49:05;;;;;;;6.93;0.88;;;11.70;61.00;;;;;;6112615;23;20084;-76
2022/01/08 01:51:30;;;;;;;2.22;0.52;;;11.70;61.00;;;;;;6157516;23;20018;-76
2022/01/08 01:53:57;;;;;;;2.85;0.60;;;11.70;61.00;;;;;;6158748;23;20144;-76
2022/01/08 01:56:23;;;;;;;1.77;0.30;;;11.60;61.20;;;;;;6159699;23;20036;-77
2022/01/08 01:58:49;;;;;;;2.80;0.40;;;11.70;61.10;;;;;;6158475;23;20412;-75
2022/01/08 02:01:15;;;;;;;2.00;0.40;;;11.70;61.40;;;;;;6158731;23;20292;-75
2022/01/08 02:03:41;;;;;;;1.77;0.43;;;11.60;61.30;;;;;;6157387;23;20026;-75
2022/01/08 02:06:07;;;;;;;1.55;0.38;;;11.60;61.50;;;;;;6157786;23;20328;-76
2022/01/08 02:08:35;;;;;;;5.35;0.45;;;11.60;61.50;;;;;;6157038;23;20028;-75
2022/01/08 02:11:01;;;;;;;1.63;0.40;;;11.70;61.50;;;;;;6157863;23;20021;-76
2022/01/08 02:13:28;;;;;;;1.20;0.40;;;11.70;61.50;;;;;;6158435;23;20032;-75
2022/01/08 02:15:55;;;;;;;0.68;0.20;;;11.70;61.50;;;;;;6158017;23;20027;-76
2022/01/08 02:18:27;;;;;;;2.03;0.50;;;11.70;61.60;;;;;;6158932;23;20019;-75
2022/01/08 02:21:01;;;;;;;2.20;0.40;;;11.70;61.40;;;;;;6159011;23;20025;-77
2022/01/08 02:23:27;;;;;;;2.58;0.40;;;11.60;61.90;;;;;;6158120;23;20021;-76
2022/01/08 02:26:07;;;;;;;1.77;0.40;;;11.60;61.30;;;;;;6158558;23;20029;-76
2022/01/08 02:28:34;;;;;;;4.22;0.40;;;11.60;61.20;;;;;;6156880;23;20017;-76
2022/01/08 02:31:00;;;;;;;1.90;0.45;;;11.60;61.50;;;;;;6158190;23;20025;-75
2022/01/08 02:33:27;;;;;;;2.17;0.47;;;11.60;61.50;;;;;;6157899;23;20063;-76
2022/01/08 02:35:54;;;;;;;0.90;0.25;;;11.60;61.60;;;;;;6159256;23;20049;-75
2022/01/08 02:38:21;;;;;;;3.42;0.32;;;11.60;61.60;;;;;;6158291;23;20080;-77
2022/01/08 02:41:01;;;;;;;3.38;0.65;;;11.70;61.60;;;;;;6156626;23;20032;-76
2022/01/08 02:43:28;;;;;;;3.67;0.57;;;11.70;61.70;;;;;;6156884;23;20018;-75
2022/01/08 02:45:54;;;;;;;3.58;0.28;;;11.70;61.80;;;;;;6158303;23;20024;-76
2022/01/08 02:48:20;;;;;;;3.45;0.57;;;11.70;61.70;;;;;;6157610;23;20032;-75
2022/01/08 02:50:46;;;;;;;2.00;0.35;;;11.70;61.60;;;;;;6157826;23;20021;-76
2022/01/08 02:53:12;;;;;;;3.60;0.40;;;11.70;61.60;;;;;;6156778;23;20053;-76
2022/01/08 02:55:38;;;;;;;1.52;0.40;;;11.70;61.60;;;;;;6157441;23;20017;-76
2022/01/08 02:58:04;;;;;;;1.55;0.45;;;11.70;61.60;;;;;;6156882;23;20074;-76
2022/01/08 03:00:30;;;;;;;3.72;0.35;;;11.80;61.50;;;;;;6158276;23;20021;-77
2022/01/08 03:02:56;;;;;;;4.68;0.40;;;11.80;61.50;;;;;;6158238;23;20026;-79
2022/01/08 03:05:22;;;;;;;3.28;0.47;;;11.80;61.50;;;;;;6158642;23;20289;-78
2022/01/08 03:07:49;;;;;;;1.45;0.40;;;11.80;61.50;;;;;;6157353;23;20093;-76
2022/01/08 03:10:17;;;;;;;2.50;0.35;;;11.80;61.40;;;;;;6158079;23;20029;-77
2022/01/08 03:12:44;;;;;;;1.13;0.30;;;11.80;61.30;;;;;;6158051;23;20056;-75
2022/01/08 03:15:12;;;;;;;3.13;0.40;;;11.80;61.30;;;;;;6158133;23;20380;-77
2022/01/08 03:17:39;;;;;;;1.15;0.30;;;11.80;61.40;;;;;;6157228;23;20022;-75
2022/01/08 03:20:09;;;;;;;2.47;0.50;;;11.70;61.50;;;;;;6157966;23;20060;-76
2022/01/08 03:22:36;;;;;;;1.85;0.50;;;11.80;61.40;;;;;;6157729;23;20036;-75
2022/01/08 03:25:03;;;;;;;1.63;0.40;;;11.80;61.50;;;;;;6157596;23;20056;-77
2022/01/08 03:27:28;;;;;;;2.03;0.47;;;11.80;61.50;;;;;;6158197;23;20315;-76
2022/01/08 03:29:54;;;;;;;2.78;0.30;;;11.80;61.50;;;;;;6157909;23;20053;-78
2022/01/08 03:32:20;;;;;;;3.03;0.57;;;11.80;61.50;;;;;;6156614;23;20021;-75
2022/01/08 03:34:46;;;;;;;5.18;0.40;;;11.80;61.50;;;;;;6157234;23;20071;-76
2022/01/08 03:37:12;;;;;;;2.10;0.73;;;11.80;61.50;;;;;;6157965;23;20330;-76
2022/01/08 03:39:37;;;;;;;1.60;0.38;;;11.80;61.50;;;;;;6157904;23;20017;-77
2022/01/08 03:42:03;;;;;;;3.15;0.32;;;11.70;61.40;;;;;;6156390;23;20021;-77
2022/01/08 03:44:29;;;;;;;2.33;0.40;;;11.70;61.30;;;;;;6157891;23;20064;-76
2022/01/08 03:47:10;;;;;;;1.17;0.40;;;11.60;61.30;;;;;;6157609;23;20049;-76
2022/01/08 03:49:36;;;;;;;1.45;0.40;;;11.60;61.30;;;;;;6158075;23;20158;-76
2022/01/08 03:52:03;;;;;;;2.00;0.40;;;11.50;61.10;;;;;;6156537;23;20098;-76
2022/01/08 03:54:28;;;;;;;1.60;0.60;;;11.50;60.90;;;;;;6158476;23;20031;-77
2022/01/08 03:56:54;;;;;;;1.50;0.20;;;11.40;61.10;;;;;;6158163;23;20370;-76
2022/01/08 03:59:20;;;;;;;3.60;0.40;;;11.40;61.00;;;;;;6157898;23;20021;-77
2022/01/08 04:01:45;;;;;;;1.77;0.40;;;11.40;61.10;;;;;;6157180;23;20404;-75
2022/01/08 04:04:11;;;;;;;1.58;0.55;;;11.40;61.20;;;;;;6158293;23;20022;-75
2022/01/08 04:06:37;;;;;;;3.22;0.85;;;11.30;60.90;;;;;;6157471;23;20026;-77
2022/01/08 04:09:03;;;;;;;2.50;0.38;;;11.20;61.00;;;;;;6158361;23;20049;-77
2022/01/08 04:11:29;;;;;;;4.93;0.50;;;11.20;61.40;;;;;;6159771;23;20013;-76
2022/01/08 04:13:55;;;;;;;2.88;0.60;;;11.20;61.30;;;;;;6159630;23;20446;-77
2022/01/08 04:16:29;;;;;;;3.55;0.88;;;11.20;61.30;;;;;;6158962;23;20021;-77
2022/01/08 04:18:55;;;;;;;0.85;0.30;;;11.20;61.20;;;;;;6158268;23;20021;-75
2022/01/08 04:23:58;;;;;;;2.83;0.43;;;11.10;61.20;;;;;;6158625;23;20025;-76
2022/01/08 04:26:25;;;;;;;2.63;0.30;;;11.10;61.20;;;;;;6159579;23;20092;-76
2022/01/08 04:28:53;;;;;;;1.95;0.30;;;11.10;61.10;;;;;;6158664;23;20022;-75
2022/01/08 04:31:18;;;;;;;2.03;0.35;;;11.00;60.90;;;;;;6159832;23;20395;-76
2022/01/08 04:33:44;;;;;;;2.95;0.40;;;11.00;61.20;;;;;;6159925;23;20053;-76
2022/01/08 04:36:10;;;;;;;1.48;0.30;;;11.10;61.30;;;;;;6159616;23;20323;-76
2022/01/08 04:38:36;;;;;;;2.08;0.68;;;11.10;61.20;;;;;;6159427;23;20017;-76
2022/01/08 04:41:01;;;;;;;1.98;0.30;;;11.10;61.10;;;;;;6160122;23;20362;-75
2022/01/08 04:43:28;;;;;;;4.63;0.65;;;11.20;61.10;;;;;;6158141;23;20021;-76
2022/01/08 04:45:54;;;;;;;1.73;0.32;;;11.30;61.20;;;;;;6158898;23;20071;-75
2022/01/08 04:48:21;;;;;;;1.70;0.35;;;11.30;61.20;;;;;;6159198;23;20022;-78
2022/01/08 04:50:46;;;;;;;6.00;0.60;;;11.30;60.90;;;;;;6159252;23;20021;-74
2022/01/08 04:53:12;;;;;;;2.10;0.40;;;11.30;60.90;;;;;;6158101;23;20036;-75
2022/01/08 04:55:39;;;;;;;4.25;0.40;;;11.30;61.00;;;;;;6159339;23;20021;-76
2022/01/08 04:58:05;;;;;;;3.20;0.43;;;11.30;61.10;;;;;;6158906;23;20028;-77
2022/01/08 05:00:32;;;;;;;4.75;0.75;;;11.30;61.70;;;;;;6160019;23;20414;-75
2022/01/08 05:02:59;;;;;;;1.75;0.43;;;11.30;61.20;;;;;;6159219;23;20025;-76
2022/01/08 05:05:25;;;;;;;3.65;0.60;;;11.40;61.20;;;;;;6159321;23;20022;-76
2022/01/08 05:07:51;;;;;;;3.03;0.40;;;11.30;61.20;;;;;;6158908;23;20032;-78
2022/01/08 05:10:17;;;;;;;4.40;0.60;;;11.30;61.20;;;;;;6158784;23;20021;-76
2022/01/08 05:12:43;;;;;;;3.90;0.50;;;11.30;61.20;;;;;;6158712;23;20017;-75
2022/01/08 05:15:09;;;;;;;3.67;0.47;;;11.30;61.50;;;;;;6159745;23;20072;-77
2022/01/08 05:17:35;;;;;;;3.88;0.90;;;11.50;61.80;;;;;;6158980;23;20017;-76
2022/01/08 05:20:12;;;;;;;2.17;0.40;;;11.70;61.20;;;;;;6158384;23;20099;-76
2022/01/08 05:22:51;;;;;;;4.28;0.68;;;11.80;60.10;;;;;;6157534;23;20053;-76
2022/01/08 05:25:18;;;;;;;5.15;1.15;;;12.00;59.10;;;;;;6159041;23;20017;-74
2022/01/08 05:27:45;;;;;;;8.10;0.70;;;12.10;58.30;;;;;;6157514;23;20053;-75
2022/01/08 05:30:12;;;;;;;4.90;0.93;;;12.20;57.80;;;;;;6157897;23;20021;-75
2022/01/08 05:32:38;;;;;;;2.85;0.90;;;12.20;57.80;;;;;;6158171;23;20143;-76
2022/01/08 05:35:04;;;;;;;5.60;0.88;;;12.20;58.40;;;;;;6159045;23;20367;-73
2022/01/08 05:37:30;;;;;;;6.53;0.52;;;12.20;58.80;;;;;;6158954;23;20093;-74
2022/01/08 05:39:56;;;;;;;3.42;0.60;;;12.30;58.90;;;;;;6158896;23;20026;-74
2022/01/08 05:42:24;;;;;;;5.18;1.00;;;12.40;58.50;;;;;;6158813;23;20021;-74
2022/01/08 05:44:50;;;;;;;6.07;0.82;;;12.60;58.40;;;;;;6159618;23;20017;-73
2022/01/08 05:47:16;;;;;;;6.50;1.05;;;12.80;58.70;;;;;;6158873;23;20415;-75
2022/01/08 05:49:42;;;;;;;6.22;1.02;;;13.10;58.50;;;;;;6156936;23;20029;-74
2022/01/08 05:52:08;;;;;;;7.93;1.17;;;13.40;58.50;;;;;;6158033;23;20030;-74
2022/01/08 05:54:34;;;;;;;9.07;1.27;;;13.60;58.80;;;;;;6159171;23;20311;-76
2022/01/08 05:57:00;;;;;;;9.55;1.13;;;13.90;58.80;;;;;;6133275;23;20017;-75
2022/01/08 05:59:27;;;;;;;8.75;1.48;;;14.20;58.70;;;;;;6158720;23;20017;-77
2022/01/08 06:01:56;;;;;;;8.95;0.85;;;14.30;58.50;;;;;;6158607;23;20092;-74
2022/01/08 06:04:22;;;;;;;4.63;1.27;;;14.50;58.70;;;;;;6156983;23;20026;-76
2022/01/08 06:06:48;;;;;;;6.05;1.35;;;14.70;58.90;;;;;;6157201;23;20029;-77
2022/01/08 06:09:14;;;;;;;16.55;2.60;;;14.80;59.20;;;;;;6159001;23;20013;-74
2022/01/08 06:11:40;;;;;;;9.52;1.63;;;14.90;59.60;;;;;;6157129;23;20021;-75
2022/01/08 06:14:06;;;;;;;9.80;1.23;;;15.00;59.70;;;;;;6159197;23;20029;-74
2022/01/08 06:16:37;;;;;;;16.50;1.65;;;15.00;59.80;;;;;;6159287;23;20107;-75
2022/01/08 06:19:08;;;;;;;8.45;1.40;;;15.10;59.80;;;;;;6157913;23;20557;-76
2022/01/08 06:21:36;;;;;;;11.90;1.35;;;15.20;60.00;;;;;;6157035;23;20021;-75
2022/01/08 06:24:03;;;;;;;9.43;1.60;;;15.20;60.00;;;;;;6157794;23;20029;-76
2022/01/08 06:26:29;;;;;;;11.18;1.00;;;15.30;59.80;;;;;;6158015;23;20022;-76
2022/01/08 06:28:55;;;;;;;12.15;1.35;;;15.30;59.70;;;;;;6158225;23;20017;-77
2022/01/08 06:31:23;;;;;;;7.75;1.17;;;15.40;59.60;;;;;;6156843;23;20067;-73
2022/01/08 06:33:49;;;;;;;8.13;1.40;;;15.40;59.80;;;;;;6157633;23;20412;-76
2022/01/08 06:36:19;;;;;;;8.00;0.75;;;15.40;59.80;;;;;;6156954;23;20048;-75
2022/01/08 06:38:48;;;;;;;8.00;1.17;;;15.50;59.80;;;;;;6158377;23;20032;-75
2022/01/08 06:41:14;;;;;;;6.00;1.30;;;15.50;59.90;;;;;;6157874;23;20431;-75
2022/01/08 06:43:40;;;;;;;7.78;1.05;;;15.60;59.90;;;;;;6157963;23;20021;-77
2022/01/08 06:46:06;;;;;;;9.27;0.77;;;15.70;60.00;;;;;;6157927;23;20029;-78
2022/01/08 06:48:31;;;;;;;11.90;1.10;;;15.70;60.00;;;;;;6158422;23;20427;-77
2022/01/08 06:50:57;;;;;;;6.15;0.90;;;15.70;60.10;;;;;;6158469;23;20022;-77
2022/01/08 06:53:23;;;;;;;12.50;1.45;;;15.80;60.10;;;;;;6158220;23;20025;-75
2022/01/08 06:55:49;;;;;;;5.80;1.05;;;15.90;60.00;;;;;;6158262;23;20013;-76
2022/01/08 06:58:15;;;;;;;11.05;1.92;;;15.90;60.00;;;;;;6158145;23;20431;-76
2022/01/08 07:00:41;;;;;;;3.35;0.93;;;16.00;60.00;;;;;;6157641;23;20036;-75
2022/01/08 07:03:10;;;;;;;12.35;1.45;;;16.00;60.00;;;;;;6157095;23;20018;-77
2022/01/08 07:05:36;;;;;;;11.48;1.20;;;16.10;59.80;;;;;;6158312;23;20021;-73
2022/01/08 07:08:02;;;;;;;10.85;1.27;;;16.10;59.70;;;;;;6157701;23;20101;-76
2022/01/08 07:10:28;;;;;;;6.90;1.23;;;16.20;59.90;;;;;;6157980;23;20017;-76
2022/01/08 07:12:54;;;;;;;5.78;1.08;;;16.20;60.00;;;;;;6158140;23;20029;-74
2022/01/08 07:15:20;;;;;;;12.63;1.30;;;16.20;60.90;;;;;;6156432;23;20319;-73
2022/01/08 07:17:46;;;;;;;10.93;1.33;;;16.30;60.70;;;;;;6156922;23;20028;-74
2022/01/08 07:20:13;;;;;;;2.50;0.60;;;16.30;60.20;;;;;;6157737;23;20351;-73
2022/01/08 07:22:39;;;;;;;11.18;1.00;;;15.60;52.50;;;;;;6158069;23;20103;-72
2022/01/08 07:25:06;;;;;;;7.55;1.50;;;15.00;59.80;;;;;;6156360;23;20018;-75
2022/01/08 07:27:35;;;;;;;7.07;1.27;;;15.40;60.90;;;;;;6156787;23;20022;-74
2022/01/08 07:30:03;;;;;;;15.48;1.85;;;15.70;60.80;;;;;;6156896;23;20076;-74
2022/01/08 07:32:29;;;;;;;12.63;1.02;;;15.80;60.30;;;;;;6158347;23;20032;-76
2022/01/08 07:34:54;;;;;;;10.98;1.25;;;16.00;60.00;;;;;;6157638;23;20014;-75
2022/01/08 07:37:20;;;;;;;9.52;1.55;;;16.10;59.80;;;;;;6131664;23;20025;-76
2022/01/08 07:39:46;;;;;;;5.82;0.98;;;16.20;59.50;;;;;;6157451;23;20056;-74
2022/01/08 07:42:11;;;;;;;10.20;1.25;;;16.30;59.10;;;;;;6156390;23;20080;-74
2022/01/08 07:44:39;;;;;;;11.93;1.17;;;16.40;59.00;;;;;;6156272;23;20045;-74
2022/01/08 07:47:05;;;;;;;11.02;1.92;;;16.40;58.80;;;;;;6158951;23;20014;-74
2022/01/08 07:49:32;;;;;;;9.85;1.02;;;16.40;58.90;;;;;;6158177;23;20013;-72
2022/01/08 07:51:57;;;;;;;10.82;1.50;;;16.50;59.00;;;;;;6157638;23;20029;-73
2022/01/08 07:54:23;;;;;;;13.82;1.55;;;16.50;59.10;;;;;;6156325;23;20055;-73
2022/01/08 07:56:49;;;;;;;12.18;1.77;;;16.50;54.20;;;;;;6156692;23;20079;-72
2022/01/08 07:59:15;;;;;;;12.45;1.23;;;15.60;59.10;;;;;;6156707;23;20026;-74
2022/01/08 08:01:41;;;;;;;8.32;0.93;;;15.90;60.00;;;;;;6157589;23;20435;-72
2022/01/08 08:04:06;;;;;;;8.40;1.77;;;16.00;59.70;;;;;;6157791;23;20017;-73
2022/01/08 08:06:36;;;;;;;10.32;1.38;;;16.20;59.70;;;;;;6156231;23;20466;-72
2022/01/08 08:09:02;;;;;;;12.15;1.83;;;16.30;59.60;;;;;;6157622;23;20043;-73
2022/01/08 08:11:28;;;;;;;16.27;1.88;;;16.40;59.60;;;;;;6154946;23;20017;-72
2022/01/08 08:13:54;;;;;;;5.05;0.80;;;16.40;59.70;;;;;;6156656;23;20022;-72
2022/01/08 08:16:20;;;;;;;9.77;1.55;;;16.50;59.80;;;;;;6157630;23;20318;-73
2022/01/08 08:18:46;;;;;;;6.07;1.33;;;16.40;55.00;;;;;;6157360;23;20469;-73
2022/01/08 08:21:12;;;;;;;4.40;1.08;;;14.70;54.20;;;;;;6157826;23;20033;-73
2022/01/08 08:23:37;;;;;;;11.32;1.20;;;13.80;58.30;;;;;;6156914;23;20477;-73
2022/01/08 08:26:03;;;;;;;8.65;1.48;;;13.40;60.90;;;;;;6156113;23;20017;-74
2022/01/08 08:28:30;;;;;;;7.00;0.93;;;13.00;62.50;;;;;;6157084;23;20076;-75
2022/01/08 08:30:56;;;;;;;14.23;1.50;;;12.90;64.40;;;;;;6157947;23;20017;-76
2022/01/08 08:33:21;;;;;;;14.10;1.65;;;13.80;66.20;;;;;;6155938;23;20177;-74
2022/01/08 08:35:47;;;;;;;14.13;2.03;;;14.40;65.20;;;;;;6158139;23;20017;-71
2022/01/08 08:38:13;;;;;;;8.68;1.80;;;14.90;62.90;;;;;;6157916;23;20439;-74
2022/01/08 08:40:39;;;;;;;11.40;1.70;;;15.30;61.40;;;;;;6157404;23;20312;-72
2022/01/08 08:43:05;;;;;;;11.05;1.50;;;15.60;60.60;;;;;;6156608;23;20014;-72
2022/01/08 08:45:31;;;;;;;14.88;1.40;;;15.80;60.00;;;;;;6156979;23;20100;-73
2022/01/08 08:47:57;;;;;;;8.75;1.20;;;16.00;59.50;;;;;;6157341;23;20057;-74
2022/01/08 08:50:24;;;;;;;11.35;1.63;;;16.10;59.30;;;;;;6157284;23;20289;-71
2022/01/08 08:52:50;;;;;;;7.30;1.10;;;16.30;59.00;;;;;;6157137;23;20076;-70
2022/01/08 08:55:18;;;;;;;11.88;1.30;;;16.40;58.90;;;;;;6157634;23;20026;-74
2022/01/08 08:57:44;;;;;;;9.13;1.38;;;16.50;58.90;;;;;;6160061;23;20035;-72
2022/01/08 09:00:11;;;;;;;9.65;1.05;;;16.60;58.80;;;;;;6158667;23;20029;-74
2022/01/08 09:02:37;;;;;;;8.75;0.90;;;16.60;58.80;;;;;;6158326;23;20434;-73
2022/01/08 09:05:04;;;;;;;8.05;1.38;;;16.60;58.80;;;;;;6158747;23;20029;-74
2022/01/08 09:07:30;;;;;;;10.98;1.60;;;16.60;58.70;;;;;;6159375;23;20078;-73
2022/01/08 09:09:55;;;;;;;8.55;1.73;;;16.70;58.80;;;;;;6158763;23;20029;-74
2022/01/08 09:12:21;;;;;;;8.25;1.13;;;16.70;58.70;;;;;;6159189;23;20076;-73
2022/01/08 09:14:47;;;;;;;5.28;0.90;;;16.70;59.00;;;;;;6159696;23;20315;-75
2022/01/08 09:17:14;;;;;;;11.60;1.80;;;16.70;58.80;;;;;;6159059;23;20318;-73
2022/01/08 09:19:40;;;;;;;6.32;0.75;;;16.70;58.80;;;;;;6159277;23;20265;-74
2022/01/08 09:22:06;;;;;;;6.18;1.10;;;16.80;58.90;;;;;;6159146;23;20065;-72
2022/01/08 09:24:33;;;;;;;10.98;0.90;;;16.80;58.90;;;;;;6159236;23;20092;-77
2022/01/08 09:26:59;;;;;;;9.35;1.05;;;16.80;58.90;;;;;;6158617;23;20419;-73
2022/01/08 09:29:25;;;;;;;9.13;1.10;;;16.80;58.90;;;;;;6159094;23;20313;-74
2022/01/08 09:31:51;;;;;;;10.55;1.20;;;16.90;58.90;;;;;;6159758;23;20028;-74
2022/01/08 09:34:17;;;;;;;11.43;1.40;;;16.80;58.80;;;;;;6158548;23;20017;-74
2022/01/08 09:36:43;;;;;;;7.35;1.25;;;16.80;59.00;;;;;;6159314;23;20057;-74
2022/01/08 09:39:09;;;;;;;4.28;0.98;;;16.70;59.20;;;;;;6159010;23;20014;-74
2022/01/08 09:41:36;;;;;;;8.27;1.75;;;16.80;59.50;;;;;;6158751;23;20101;-74
2022/01/08 09:44:02;;;;;;;13.02;0.73;;;16.80;59.60;;;;;;6158764;23;20032;-73
2022/01/08 09:46:28;;;;;;;6.88;0.95;;;16.80;59.60;;;;;;6159254;23;20013;-74
2022/01/08 09:48:53;;;;;;;4.93;0.95;;;16.80;59.80;;;;;;6157642;23;20396;-74
2022/01/08 09:51:19;;;;;;;7.30;1.02;;;16.70;59.80;;;;;;6158485;23;20029;-73
2022/01/08 09:53:46;;;;;;;10.40;2.10;;;16.80;59.80;;;;;;6156685;23;20032;-74
2022/01/08 09:56:12;;;;;;;9.73;1.00;;;16.80;59.60;;;;;;6157846;23;20036;-75
2022/01/08 09:58:38;;;;;;;5.38;0.80;;;16.80;59.60;;;;;;6155532;23;20443;-76
2022/01/08 10:01:26;;;;;;;13.60;1.50;;;16.80;59.20;;;;;;6158416;23;20021;-76
2022/01/08 10:03:52;;;;;;;11.15;1.67;;;16.60;57.60;;;;;;6158097;23;20049;-77
2022/01/08 10:06:30;;;;;;;8.52;1.08;;;16.60;59.20;;;;;;6158350;23;20021;-75
2022/01/08 10:08:57;;;;;;;8.65;1.08;;;16.60;59.50;;;;;;6158502;23;20018;-76
2022/01/08 10:11:25;;;;;;;12.90;1.30;;;16.60;59.50;;;;;;6158679;23;20025;-77
2022/01/08 10:14:02;;;;;;;7.97;1.33;;;16.70;59.10;;;;;;6158270;23;20080;-77
2022/01/08 10:19:24;;;;;;;12.02;2.25;;;16.80;59.10;;;;;;6158124;23;20311;-74
2022/01/08 10:21:54;;;;;;;11.65;1.70;;;16.80;57.90;;;;;;6158344;23;20024;-76
2022/01/08 10:24:23;;;;;;;14.68;1.98;;;16.60;57.90;;;;;;6158760;23;20108;-77
2022/01/08 10:26:51;;;;;;;18.15;2.05;;;16.60;58.00;;;;;;6158220;23;20100;-78
2022/01/08 10:29:19;;;;;;;14.00;2.40;;;16.60;58.20;;;;;;6157715;23;20482;-80
2022/01/08 10:31:51;;;;;;;16.05;1.95;;;16.70;58.20;;;;;;6157554;23;20028;-78
2022/01/08 10:34:22;;;;;;;12.82;1.73;;;16.60;58.20;;;;;;6158470;23;20018;-77
2022/01/08 10:37:05;;;;;;;16.58;2.58;;;16.60;58.80;;;;;;6158146;23;20013;-78
2022/01/08 10:39:39;;;;;;;15.52;2.47;;;16.60;58.60;;;;;;6158128;23;20092;-73
2022/01/08 10:42:17;;;;;;;18.23;1.95;;;16.60;59.10;;;;;;6158212;23;20018;-78
2022/01/08 10:44:44;;;;;;;15.20;2.55;;;16.50;59.20;;;;;;6157943;23;20021;-74
2022/01/08 10:47:13;;;;;;;12.20;1.92;;;16.50;60.20;;;;;;6158727;23;20017;-77
2022/01/08 10:49:40;;;;;;;8.35;1.35;;;16.40;59.80;;;;;;6158233;23;20407;-80
2022/01/08 10:52:26;;;;;;;19.30;1.88;;;16.40;59.30;;;;;;6156873;23;20080;-74
2022/01/08 10:55:00;;;;;;;19.45;1.70;;;16.30;58.50;;;;;;6157757;23;20032;-77
2022/01/08 10:57:40;;;;;;;10.20;1.52;;;16.30;58.80;;;;;;6158638;23;20017;-79
2022/01/08 11:00:11;;;;;;;17.27;2.15;;;16.30;59.00;;;;;;6132487;23;20021;-75
2022/01/08 11:02:38;;;;;;;14.07;1.75;;;16.20;59.70;;;;;;6156918;23;20442;-78
2022/01/08 11:05:09;;;;;;;17.20;2.50;;;16.20;60.00;;;;;;6157808;23;20013;-75
2022/01/08 11:07:37;;;;;;;18.15;2.40;;;16.20;59.40;;;;;;6158531;23;20096;-77
2022/01/08 11:10:07;;;;;;;16.00;2.40;;;16.20;59.00;;;;;;6157989;23;20057;-71
2022/01/08 11:12:38;;;;;;;12.10;1.70;;;16.20;59.00;;;;;;6157777;23;20025;-77
2022/01/08 11:17:48;;;;;;;11.32;1.85;;;16.10;59.20;;;;;;6157078;23;20435;-77
2022/01/08 11:20:24;;;;;;;21.33;2.23;;;16.10;59.50;;;;;;6157591;23;20029;-76
2022/01/08 11:22:55;;;;;;;14.35;1.85;;;16.10;59.40;;;;;;6158028;23;20021;-73
2022/01/08 11:25:24;;;;;;;13.35;2.38;;;16.10;59.70;;;;;;6158007;23;20108;-76
2022/01/08 11:28:05;;;;;;;12.75;2.08;;;16.10;59.80;;;;;;6157419;23;20056;-77
2022/01/08 11:30:32;;;;;;;12.07;1.90;;;16.10;59.80;;;;;;6157850;23;20083;-77
2022/01/08 11:33:05;;;;;;;12.15;2.67;;;16.10;59.90;;;;;;6156435;23;20021;-77
2022/01/08 11:35:33;;;;;;;16.42;2.38;;;16.10;60.40;;;;;;6156855;23;20060;-75
2022/01/08 11:38:04;;;;;;;13.27;2.22;;;16.10;60.60;;;;;;6157850;23;20025;-77
2022/01/08 11:40:31;;;;;;;20.88;2.17;;;16.10;60.40;;;;;;6157291;23;20041;-80
2022/01/08 11:43:02;;;;;;;12.27;1.80;;;16.00;60.00;;;;;;6157738;23;20018;-79
2022/01/08 11:45:32;;;;;;;16.80;2.25;;;16.00;60.30;;;;;;6156803;23;20386;-77
2022/01/08 11:48:00;;;;;;;21.27;3.35;;;16.00;60.80;;;;;;6157669;23;20060;-77
2022/01/08 11:50:29;;;;;;;13.82;2.30;;;16.00;61.60;;;;;;6157464;23;20026;-77
2022/01/08 11:53:31;;;;;;;13.82;1.70;;;16.00;61.80;;;;;;6155231;23;20025;-79
2022/01/08 11:55:59;;;;;;;16.52;2.00;;;16.00;62.10;;;;;;6038541;23;20050;-79
2022/01/08 11:58:43;;;;;;;14.43;1.90;;;16.10;62.20;;;;;;6130303;23;20017;-78
2022/01/08 12:01:13;;;;;;;13.07;1.80;;;16.00;63.50;;;;;;6157387;23;20442;-79
2022/01/08 12:03:40;;;;;;;12.05;2.15;;;16.10;62.40;;;;;;6156181;23;20025;-77
2022/01/08 12:06:34;;;;;;;14.80;2.15;;;16.10;61.70;;;;;;6157430;23;20415;-78
2022/01/08 12:09:26;;;;;;;8.48;1.85;;;16.10;61.20;;;;;;6157745;23;20009;-79
2022/01/08 12:11:54;;;;;;;13.13;1.70;;;16.20;61.00;;;;;;6156221;23;20021;-75
2022/01/08 12:14:26;;;;;;;9.60;2.13;;;16.20;60.90;;;;;;6157998;23;20087;-78
2022/01/08 12:16:57;;;;;;;17.15;1.83;;;16.20;60.80;;;;;;6157821;23;20033;-77
2022/01/08 12:19:44;;;;;;;11.10;2.00;;;16.30;60.60;;;;;;6156507;23;20044;-79
2022/01/08 12:22:16;;;;;;;15.70;2.17;;;16.30;60.50;;;;;;6157600;23;20025;-77
2022/01/08 12:24:44;;;;;;;9.80;1.85;;;16.40;60.50;;;;;;6156818;23;20021;-77
2022/01/08 12:27:34;;;;;;;9.77;1.85;;;16.20;57.20;;;;;;6156731;23;20052;-78
2022/01/08 12:30:15;;;;;;;9.25;1.73;;;15.70;61.60;;;;;;6157334;23;20018;-75
2022/01/08 12:32:45;;;;;;;8.38;1.60;;;16.00;61.40;;;;;;6133015;23;20043;-78
2022/01/08 12:35:23;;;;;;;11.68;1.55;;;16.20;60.90;;;;;;6156784;23;20052;-79
2022/01/08 12:37:56;;;;;;;12.77;2.30;;;16.30;60.30;;;;;;6159033;23;20053;-79
2022/01/08 12:40:45;;;;;;;7.53;2.00;;;16.40;60.10;;;;;;6158916;23;20060;-76
2022/01/08 12:43:31;;;;;;;14.50;2.08;;;16.50;60.00;;;;;;6158691;23;20013;-77
2022/01/08 12:46:24;;;;;;;12.85;1.70;;;16.60;59.50;;;;;;6157787;23;20454;-79
2022/01/08 12:49:06;;;;;;;7.55;2.47;;;16.60;59.20;;;;;;6157374;23;20026;-75
2022/01/08 12:51:41;;;;;;;11.38;1.65;;;16.70;59.30;;;;;;6159023;23;20029;-78
2022/01/08 12:54:07;;;;;;;11.25;2.15;;;16.70;59.30;;;;;;6159040;23;20021;-77
2022/01/08 12:56:34;;;;;;;10.38;1.55;;;16.70;59.30;;;;;;6159205;23;20100;-78
2022/01/08 12:59:02;;;;;;;11.70;2.33;;;16.70;59.40;;;;;;6159061;23;20014;-76
2022/01/08 13:01:28;;;;;;;12.25;2.75;;;16.70;59.50;;;;;;6158414;23;20022;-74
2022/01/08 13:03:56;;;;;;;11.65;2.50;;;16.80;59.80;;;;;;6157785;23;20018;-76
2022/01/08 13:06:29;;;;;;;17.42;1.95;;;16.80;60.20;;;;;;6158848;23;20314;-75
2022/01/08 13:08:55;;;;;;;16.73;2.60;;;16.80;60.30;;;;;;6155652;23;20084;-75
2022/01/08 13:11:24;;;;;;;13.95;2.33;;;16.80;60.20;;;;;;6157142;23;20017;-74
2022/01/08 13:13:55;;;;;;;11.65;1.65;;;16.80;60.30;;;;;;6158588;23;20018;-74